createdAt,value
2018-03-08T00:00:30.181Z,10.73
2018-03-08T00:02:58.485Z,11.00
2018-03-08T00:05:26.780Z,10.70
2018-03-08T00:07:55.074Z,10.13
2018-03-08T00:10:23.360Z,10.03
2018-03-08T00:12:51.716Z,10.70
2018-03-08T00:15:20.044Z,10.57
2018-03-08T00:17:48.335Z,11.13
2018-03-08T00:20:16.662Z,10.70
2018-03-08T00:22:44.949Z,10.53
2018-03-08T00:25:13.225Z,11.20
2018-03-08T00:27:41.515Z,10.23
2018-03-08T00:30:09.825Z,10.87
2018-03-08T00:32:38.138Z,10.40
2018-03-08T00:35:06.454Z,10.33
2018-03-08T00:37:34.803Z,10.40
2018-03-08T00:40:03.096Z,10.50
2018-03-08T00:42:31.387Z,10.30
2018-03-08T00:44:59.694Z,10.63
2018-03-08T00:47:27.998Z,11.27
2018-03-08T00:49:56.352Z,11.23
2018-03-08T00:52:24.659Z,11.27
2018-03-08T00:54:52.948Z,10.60
2018-03-08T00:57:21.235Z,10.97
2018-03-08T00:59:49.537Z,11.10
2018-03-08T01:02:17.899Z,11.00
2018-03-08T01:04:46.188Z,10.43
2018-03-08T01:07:14.503Z,11.10
2018-03-08T01:09:42.815Z,10.70
2018-03-08T01:12:11.094Z,10.40
2018-03-08T01:14:39.426Z,11.20
2018-03-08T01:17:07.723Z,11.23
2018-03-08T01:19:36.020Z,11.30
2018-03-08T01:22:04.321Z,10.37
2018-03-08T01:24:32.621Z,10.40
2018-03-08T01:27:00.910Z,10.90
2018-03-08T01:29:29.199Z,10.93
2018-03-08T01:31:57.483Z,10.97
2018-03-08T01:34:25.795Z,10.83
2018-03-08T01:36:54.153Z,10.97
2018-03-08T01:39:22.441Z,10.80
2018-03-08T01:41:50.736Z,10.43
2018-03-08T01:44:19.046Z,11.47
2018-03-08T01:46:47.344Z,10.60
2018-03-08T01:49:15.643Z,10.43
2018-03-08T01:51:55.231Z,11.10
2018-03-08T01:54:23.532Z,10.63
2018-03-08T01:56:51.841Z,10.07
2018-03-08T01:59:20.313Z,10.70
2018-03-08T02:01:48.602Z,10.73
2018-03-08T02:04:16.876Z,10.93
2018-03-08T02:06:45.244Z,10.80
2018-03-08T02:09:13.557Z,10.47
2018-03-08T02:11:41.845Z,11.00
2018-03-08T02:14:10.141Z,9.60
2018-03-08T02:16:38.434Z,10.70
2018-03-08T02:19:06.766Z,10.10
2018-03-08T02:21:35.043Z,10.10
2018-03-08T02:24:03.329Z,10.47
2018-03-08T02:26:31.641Z,10.57
2018-03-08T02:28:59.977Z,10.63
2018-03-08T02:31:28.271Z,10.43
2018-03-08T02:33:56.558Z,10.30
2018-03-08T02:36:24.900Z,10.80
2018-03-08T02:38:53.191Z,10.40
2018-03-08T02:41:21.490Z,9.87
2018-03-08T02:43:49.770Z,10.30
2018-03-08T02:46:18.120Z,10.07
2018-03-08T02:48:46.452Z,10.13
2018-03-08T02:51:14.735Z,9.97
2018-03-08T02:53:43.024Z,11.13
2018-03-08T02:56:11.310Z,11.13
2018-03-08T02:58:39.625Z,10.20
2018-03-08T03:01:07.941Z,9.27
2018-03-08T03:03:36.226Z,9.77
2018-03-08T03:06:04.527Z,10.23
2018-03-08T03:08:32.806Z,10.37
2018-03-08T03:11:01.108Z,10.27
2018-03-08T03:13:29.398Z,9.67
2018-03-08T03:15:57.673Z,9.37
2018-03-08T03:18:27.473Z,9.70
2018-03-08T03:20:55.913Z,10.03
2018-03-08T03:23:25.247Z,9.97
2018-03-08T03:25:53.998Z,9.70
2018-03-08T03:28:22.301Z,9.70
2018-03-08T03:30:50.606Z,10.07
2018-03-08T03:33:18.918Z,9.87
2018-03-08T03:35:47.214Z,10.30
2018-03-08T03:38:15.489Z,9.87
2018-03-08T03:40:43.782Z,10.80
2018-03-08T03:43:12.084Z,11.73
2018-03-08T03:45:40.383Z,11.40
2018-03-08T03:48:08.669Z,12.40
2018-03-08T03:50:37.054Z,12.40
2018-03-08T03:53:05.338Z,17.87
2018-03-08T03:55:33.622Z,16.70
2018-03-08T03:58:01.918Z,16.67
2018-03-08T04:00:30.217Z,13.83
2018-03-08T04:02:58.532Z,13.80
2018-03-08T04:05:26.904Z,14.77
2018-03-08T04:07:55.089Z,13.60
2018-03-08T04:10:23.409Z,13.97
2018-03-08T04:12:51.762Z,13.57
2018-03-08T04:15:20.060Z,16.63
2018-03-08T04:17:48.344Z,16.10
2018-03-08T04:20:16.647Z,14.57
2018-03-08T04:22:44.956Z,14.50
2018-03-08T04:25:13.242Z,17.33
2018-03-08T04:27:41.537Z,15.70
2018-03-08T04:30:09.838Z,15.30
2018-03-08T04:32:38.132Z,15.83
2018-03-08T04:35:06.452Z,13.50
2018-03-08T04:37:34.775Z,13.37
2018-03-08T04:40:03.085Z,13.57
2018-03-08T04:42:31.427Z,13.80
2018-03-08T04:44:59.726Z,13.37
2018-03-08T04:47:28.023Z,13.67
2018-03-08T04:49:56.334Z,13.90
2018-03-08T04:52:24.657Z,12.73
2018-03-08T04:54:52.965Z,13.27
2018-03-08T04:57:21.294Z,12.87
2018-03-08T04:59:49.585Z,12.70
2018-03-08T05:02:19.667Z,13.13
2018-03-08T05:04:47.976Z,12.53
2018-03-08T05:07:16.389Z,12.57
2018-03-08T05:09:44.674Z,12.17
2018-03-08T05:12:12.963Z,12.13
2018-03-08T05:14:41.275Z,12.10
2018-03-08T05:17:09.573Z,11.97
2018-03-08T05:19:38.052Z,11.93
2018-03-08T05:22:06.409Z,11.43
2018-03-08T05:24:34.738Z,12.97
2018-03-08T05:27:03.058Z,11.43
2018-03-08T05:29:31.539Z,11.70
2018-03-08T05:31:59.826Z,11.73
2018-03-08T05:34:28.136Z,11.10
2018-03-08T05:36:56.487Z,11.47
2018-03-08T05:39:24.781Z,11.03
2018-03-08T05:41:53.085Z,11.07
2018-03-08T05:44:21.400Z,11.37
2018-03-08T05:46:49.714Z,11.03
2018-03-08T05:49:18.026Z,11.67
2018-03-08T05:51:46.329Z,10.73
2018-03-08T05:54:17.903Z,10.53
2018-03-08T05:56:46.190Z,10.50
2018-03-08T05:59:14.507Z,10.50
2018-03-08T06:01:42.799Z,10.70
2018-03-08T06:04:11.109Z,9.97
2018-03-08T06:06:39.395Z,10.27
2018-03-08T06:09:07.705Z,10.27
2018-03-08T06:11:36.044Z,9.73
2018-03-08T06:14:04.378Z,10.10
2018-03-08T06:16:32.662Z,10.10
2018-03-08T06:19:00.949Z,10.57
2018-03-08T06:21:29.257Z,9.97
2018-03-08T06:23:57.554Z,10.03
2018-03-08T06:26:26.619Z,10.57
2018-03-08T06:28:54.920Z,16.73
2018-03-08T06:31:23.216Z,17.97
2018-03-08T06:33:51.538Z,19.43
2018-03-08T06:36:19.826Z,19.23
2018-03-08T06:38:48.167Z,18.87
2018-03-08T06:41:16.443Z,19.90
2018-03-08T06:43:44.748Z,21.77
2018-03-08T06:46:13.099Z,21.17
2018-03-08T06:48:41.391Z,20.43
2018-03-08T06:51:09.674Z,21.93
2018-03-08T06:53:38.006Z,21.63
2018-03-08T07:50:52.737Z,18.53
2018-03-08T07:53:21.043Z,18.13
2018-03-08T07:55:49.324Z,18.03
2018-03-08T07:58:17.637Z,18.07
2018-03-08T08:00:45.930Z,18.77
2018-03-08T08:03:14.223Z,18.03
2018-03-08T08:05:53.697Z,18.00
2018-03-08T08:11:31.880Z,18.03
2018-03-08T08:14:00.159Z,17.57
2018-03-08T08:16:28.498Z,16.97
2018-03-08T08:18:56.783Z,17.37
2018-03-08T08:21:25.080Z,18.87
2018-03-08T08:23:53.419Z,20.27
2018-03-08T08:26:21.702Z,22.10
2018-03-08T08:28:50.861Z,25.03
2018-03-08T08:31:19.159Z,19.53
2018-03-08T08:33:47.445Z,19.40
2018-03-08T08:36:15.779Z,19.00
2018-03-08T08:38:44.073Z,17.90
2018-03-08T08:41:12.373Z,17.57
2018-03-08T08:43:40.676Z,16.50
2018-03-08T08:46:09.004Z,16.67
2018-03-08T08:48:37.317Z,16.17
2018-03-08T08:51:05.610Z,15.87
2018-03-08T08:53:33.889Z,23.60
2018-03-08T08:56:02.201Z,18.27
2018-03-08T08:58:30.487Z,19.07
2018-03-08T09:00:58.778Z,19.17
2018-03-08T09:03:27.077Z,17.67
2018-03-08T09:05:55.366Z,28.73
2018-03-08T09:08:23.685Z,29.57
2018-03-08T09:13:47.858Z,29.40
2018-03-08T09:16:16.150Z,28.23
2018-03-08T09:18:44.217Z,28.63
2018-03-08T09:21:12.502Z,30.93
2018-03-08T09:23:40.805Z,29.93
2018-03-08T09:26:09.104Z,29.73
2018-03-08T09:28:37.578Z,28.80
2018-03-08T09:31:05.874Z,28.30
2018-03-08T09:33:34.184Z,28.30
2018-03-08T09:36:02.468Z,27.47
2018-03-08T09:38:30.802Z,25.57
2018-03-08T09:40:59.082Z,26.30
2018-03-08T09:43:27.381Z,27.13
2018-03-08T09:45:55.689Z,25.90
2018-03-08T09:48:23.999Z,25.60
2018-03-08T09:50:52.342Z,24.90
2018-03-08T09:53:20.647Z,22.73
2018-03-08T09:55:48.960Z,22.57
2018-03-08T09:58:17.289Z,21.60
2018-03-08T10:00:45.594Z,22.03
2018-03-08T10:03:13.882Z,21.47
2018-03-08T10:05:42.169Z,21.77
2018-03-08T10:08:10.477Z,20.60
2018-03-08T10:10:38.764Z,22.17
2018-03-08T10:13:07.058Z,20.90
2018-03-08T10:15:35.406Z,18.93
2018-03-08T10:18:03.690Z,19.13
2018-03-08T10:20:31.974Z,18.30
2018-03-08T10:23:00.265Z,17.90
2018-03-08T10:25:28.577Z,17.60
2018-03-08T10:27:56.890Z,17.47
2018-03-08T10:30:25.200Z,16.43
2018-03-08T10:32:53.485Z,16.40
2018-03-08T10:35:21.821Z,17.27
2018-03-08T10:37:50.159Z,16.03
2018-03-08T10:40:18.475Z,15.90
2018-03-08T10:42:46.773Z,15.87
2018-03-08T10:45:15.143Z,15.87
2018-03-08T10:47:43.629Z,16.77
2018-03-08T10:50:11.964Z,16.20
2018-03-08T10:52:40.273Z,15.70
2018-03-08T10:55:09.219Z,15.47
2018-03-08T10:57:37.554Z,16.27
2018-03-08T11:00:05.790Z,16.10
2018-03-08T11:02:34.845Z,20.97
2018-03-08T11:05:03.790Z,22.70
2018-03-08T11:07:32.105Z,22.53
2018-03-08T11:10:00.387Z,19.77
2018-03-08T11:12:28.678Z,20.17
2018-03-08T11:14:56.995Z,18.80
2018-03-08T11:17:25.274Z,17.97
2018-03-08T11:19:53.556Z,17.00
2018-03-08T11:22:21.856Z,16.23
2018-03-08T11:24:50.324Z,15.57
2018-03-08T11:27:18.616Z,14.70
2018-03-08T11:29:46.921Z,14.27
2018-03-08T11:32:15.250Z,13.90
2018-03-08T11:34:43.550Z,13.80
2018-03-08T11:37:11.891Z,14.13
2018-03-08T11:39:40.202Z,12.80
2018-03-08T11:42:09.277Z,13.30
2018-03-08T11:44:37.006Z,13.07
2018-03-08T11:47:05.317Z,12.43
2018-03-08T11:49:33.626Z,11.77
2018-03-08T11:52:01.914Z,12.23
2018-03-08T11:54:30.213Z,11.77
2018-03-08T11:56:58.565Z,11.83
2018-03-08T11:59:26.878Z,11.03
2018-03-08T12:01:55.179Z,10.53
2018-03-08T12:04:23.493Z,10.97
2018-03-08T12:06:51.780Z,10.47
2018-03-08T12:09:20.067Z,10.97
2018-03-08T12:11:48.357Z,10.37
2018-03-08T12:14:16.633Z,9.63
2018-03-08T12:16:44.953Z,9.70
2018-03-08T12:19:13.171Z,9.70
2018-03-08T12:21:41.494Z,9.50
2018-03-08T12:24:09.781Z,9.27
2018-03-08T12:26:38.105Z,9.63
2018-03-08T12:29:06.407Z,9.63
2018-03-08T12:31:34.767Z,10.03
2018-03-08T12:34:03.243Z,9.33
2018-03-08T12:36:31.525Z,9.07
2018-03-08T12:38:59.866Z,9.13
2018-03-08T12:41:28.181Z,10.70
2018-03-08T12:43:56.495Z,11.40
2018-03-08T12:46:24.832Z,11.67
2018-03-08T12:48:53.286Z,12.97
2018-03-08T12:51:21.597Z,12.50
2018-03-08T12:53:49.905Z,13.90
2018-03-08T12:56:18.281Z,13.50
2018-03-08T12:58:46.577Z,12.23
2018-03-08T13:01:26.987Z,12.50
2018-03-08T13:03:55.382Z,12.03
2018-03-08T13:06:23.674Z,11.93
2018-03-08T13:08:51.958Z,11.00
2018-03-08T13:11:20.242Z,10.43
2018-03-08T13:13:48.553Z,10.77
2018-03-08T13:16:16.855Z,10.23
2018-03-08T13:18:45.147Z,10.60
2018-03-08T13:21:13.434Z,11.03
2018-03-08T13:23:41.727Z,10.03
2018-03-08T13:26:10.067Z,10.37
2018-03-08T13:28:38.376Z,10.40
2018-03-08T13:31:06.734Z,9.33
2018-03-08T13:33:35.021Z,9.40
2018-03-08T13:36:03.148Z,9.63
2018-03-08T13:38:31.434Z,9.07
2018-03-08T13:40:59.731Z,8.57
2018-03-08T13:43:28.119Z,8.50
2018-03-08T13:45:56.418Z,7.77
2018-03-08T13:48:24.745Z,7.77
2018-03-08T13:50:53.046Z,7.53
2018-03-08T13:53:21.325Z,8.37
2018-03-08T13:55:49.605Z,7.77
2018-03-08T13:58:17.877Z,8.13
2018-03-08T14:00:46.199Z,7.77
2018-03-08T14:03:14.517Z,7.43
2018-03-08T14:05:43.019Z,7.83
2018-03-08T14:08:11.320Z,6.80
2018-03-08T14:10:39.597Z,7.40
2018-03-08T14:13:07.746Z,7.70
2018-03-08T14:15:36.031Z,6.90
2018-03-08T14:18:04.478Z,7.23
2018-03-08T14:20:32.782Z,6.67
2018-03-08T14:23:01.093Z,6.90
2018-03-08T14:25:29.387Z,7.00
2018-03-08T14:27:57.693Z,7.10
2018-03-08T14:30:26.041Z,6.47
2018-03-08T14:32:54.408Z,6.50
2018-03-08T14:35:22.854Z,6.10
2018-03-08T14:37:51.130Z,6.30
2018-03-08T14:40:19.425Z,6.47
2018-03-08T14:42:47.714Z,6.70
2018-03-08T14:45:16.009Z,6.40
2018-03-08T14:47:44.298Z,5.77
2018-03-08T14:50:12.753Z,5.63
2018-03-08T14:52:41.027Z,5.73
2018-03-08T14:55:09.570Z,6.23
2018-03-08T14:57:37.959Z,6.00
2018-03-08T15:00:06.244Z,5.80
2018-03-08T15:02:34.523Z,5.90
2018-03-08T15:05:02.811Z,5.80
2018-03-08T15:07:31.103Z,5.40
2018-03-08T15:09:59.391Z,6.00
2018-03-08T15:12:27.826Z,6.10
2018-03-08T15:14:56.204Z,5.80
2018-03-08T15:17:24.504Z,5.87
2018-03-08T15:19:52.831Z,5.13
2018-03-08T15:22:21.113Z,5.33
2018-03-08T15:24:49.458Z,5.57
2018-03-08T15:27:17.742Z,4.97
2018-03-08T15:29:46.024Z,5.83
2018-03-08T15:32:14.387Z,4.53
2018-03-08T15:34:42.666Z,4.97
2018-03-08T15:37:10.973Z,5.03
2018-03-08T15:39:39.310Z,4.23
2018-03-08T15:42:07.586Z,5.30
2018-03-08T15:44:35.863Z,5.60
2018-03-08T15:47:04.152Z,5.50
2018-03-08T15:49:32.445Z,5.20
2018-03-08T15:52:00.738Z,5.50
2018-03-08T15:54:29.034Z,5.00
2018-03-08T15:56:57.394Z,5.30
2018-03-08T15:59:25.706Z,4.80
2018-03-08T16:01:53.991Z,4.33
2018-03-08T16:04:22.341Z,4.60
2018-03-08T16:10:36.308Z,5.50
2018-03-08T16:13:04.600Z,5.70
2018-03-08T16:15:32.888Z,5.57
2018-03-08T16:18:01.230Z,5.17
2018-03-08T16:20:29.635Z,5.10
2018-03-08T16:22:57.916Z,4.80
2018-03-08T16:25:26.221Z,4.80
2018-03-08T16:27:54.513Z,4.57
2018-03-08T16:30:22.804Z,4.73
2018-03-08T16:32:51.120Z,4.83
2018-03-08T16:35:19.410Z,4.90
2018-03-08T16:37:47.710Z,4.47
2018-03-08T16:40:16.003Z,5.00
2018-03-08T16:42:44.304Z,5.13
2018-03-08T16:45:12.609Z,4.80
2018-03-08T16:47:40.901Z,3.90
2018-03-08T16:50:09.328Z,4.27
2018-03-08T16:52:37.634Z,4.20
2018-03-08T16:55:05.918Z,4.37
2018-03-08T16:57:34.243Z,4.30
2018-03-08T17:00:02.534Z,4.30
2018-03-08T17:02:30.809Z,4.90
2018-03-08T17:04:59.099Z,4.77
2018-03-08T17:07:27.451Z,4.50
2018-03-08T17:09:55.737Z,4.10
2018-03-08T17:12:24.030Z,4.37
2018-03-08T17:14:52.376Z,4.10
2018-03-08T17:17:20.685Z,3.90
2018-03-08T17:19:48.962Z,3.90
2018-03-08T17:22:17.313Z,4.30
2018-03-08T17:24:45.609Z,3.73
2018-03-08T17:27:13.916Z,4.40
2018-03-08T17:29:42.247Z,4.03
2018-03-08T17:32:10.617Z,4.40
